Time;durP1;ratioP1;P1;durP2;ratioP2;P2;SDS_P1;SDS_P2;PMS_P1;PMS_P2;Temp;Humidity;BMP_temperature;BMP_pressure;BME280_temperature;BME280_humidity;BME280_pressure;Samples;Min_cycle;Max_cycle;Signal;HPM_P1;HPM_P2
2023/02/19 00:03:20;;;;;;;28.15;12.50;;;;;;;8.01;89.56;100378.25;10154419;29;20124;-79
2023/02/19 00:08:24;;;;;;;25.20;13.07;;;;;;;8.11;90.53;100370.41;10143660;29;20452;-79
2023/02/19 00:13:27;;;;;;;26.13;13.20;;;;;;;8.05;91.19;100357.50;10144219;29;20113;-78
2023/02/19 00:18:30;;;;;;;28.63;14.95;;;;;;;7.89;91.34;100360.38;10147227;29;20068;-79
2023/02/19 00:23:35;;;;;;;21.95;12.00;;;;;;;7.82;92.73;100359.97;10149352;29;20076;-79
2023/02/19 00:28:38;;;;;;;23.30;11.40;;;;;;;7.87;91.98;100341.78;10143464;29;20095;-79
2023/02/19 00:33:41;;;;;;;20.10;9.88;;;;;;;7.88;91.90;100347.97;10139007;29;20528;-79
2023/02/19 00:38:46;;;;;;;19.63;8.80;;;;;;;8.02;91.67;100337.16;10139996;29;20444;-79
2023/02/19 00:43:51;;;;;;;13.40;7.93;;;;;;;7.82;92.48;100333.22;10152427;29;20515;-80
2023/02/19 00:48:57;;;;;;;11.98;7.95;;;;;;;7.87;91.94;100328.41;10144548;29;20123;-79
2023/02/19 00:54:01;;;;;;;14.10;8.25;;;;;;;7.83;94.12;100328.72;10153699;29;20504;-79
2023/02/19 00:59:04;;;;;;;14.93;7.85;;;;;;;7.98;93.14;100326.78;10139694;29;20482;-78
2023/02/19 01:04:07;;;;;;;13.27;7.07;;;;;;;7.72;94.60;100314.28;10146331;29;20048;-80
2023/02/19 01:09:12;;;;;;;16.92;8.25;;;;;;;7.68;95.15;100323.50;10178479;29;20353;-79
2023/02/19 01:14:16;;;;;;;16.40;9.35;;;;;;;7.88;94.00;100324.75;10165815;29;20143;-82
2023/02/19 01:19:19;;;;;;;13.82;8.02;;;;;;;7.64;96.00;100321.13;10178679;29;20104;-83
2023/02/19 01:24:23;;;;;;;12.98;7.95;;;;;;;7.68;96.10;100318.16;10162717;29;20412;-83
2023/02/19 01:29:26;;;;;;;9.25;5.80;;;;;;;7.58;98.16;100330.44;10174400;29;20048;-82
2023/02/19 01:34:32;;;;;;;10.05;5.75;;;;;;;7.64;97.12;100327.34;10170914;29;20048;-83
2023/02/19 01:39:36;;;;;;;8.77;5.80;;;;;;;7.68;96.99;100325.31;10169435;29;20424;-81
2023/02/19 01:45:18;;;;;;;8.45;5.57;;;;;;;7.60;96.82;100312.50;10183451;29;20052;-81
2023/02/19 01:50:23;;;;;;;14.77;7.22;;;;;;;7.57;96.33;100315.38;10176496;29;20072;-82
2023/02/19 01:55:27;;;;;;;11.63;6.95;;;;;;;7.66;96.52;100312.06;10174287;29;20041;-81
2023/02/19 02:00:31;;;;;;;16.35;10.13;;;;;;;7.65;96.34;100312.16;10161831;29;20138;-81
2023/02/19 02:05:47;;;;;;;17.10;9.82;;;;;;;7.52;96.75;100304.16;10175944;29;20071;-81
2023/02/19 02:10:52;;;;;;;19.30;10.25;;;;;;;8.03;94.49;100300.56;10186772;29;20076;-81
2023/02/19 02:16:03;;;;;;;19.45;10.90;;;;;;;7.89;94.74;100314.91;10173882;29;20551;-80
2023/02/19 02:21:46;;;;;;;18.95;11.30;;;;;;;7.90;93.29;100319.31;10151113;29;20054;-80
2023/02/19 02:27:06;;;;;;;19.67;11.75;;;;;;;7.61;93.85;100305.31;10160167;29;20048;-80
2023/02/19 02:32:13;;;;;;;18.90;11.70;;;;;;;8.14;91.39;100311.34;10154934;29;20055;-80
2023/02/19 02:37:16;;;;;;;20.77;12.20;;;;;;;8.12;90.78;100308.78;10172432;29;20048;-79
2023/02/19 02:42:28;;;;;;;20.67;11.75;;;;;;;7.99;90.92;100307.97;10121083;29;20065;-78
2023/02/19 02:47:44;;;;;;;24.30;14.27;;;;;;;8.21;89.97;100301.91;10117749;29;20084;-79
2023/02/19 02:58:15;;;;;;;24.63;13.57;;;;;;;8.12;90.08;100315.97;10151072;29;20437;-80
2023/02/19 03:03:24;;;;;;;24.10;14.00;;;;;;;7.65;92.28;100312.16;10131759;29;20056;-78
2023/02/19 03:08:31;;;;;;;28.13;14.98;;;;;;;8.03;90.37;100297.88;10147266;29;20079;-80
2023/02/19 03:19:20;;;;;;;29.75;16.00;;;;;;;7.90;90.53;100306.78;10055473;29;20061;-78
2023/02/19 03:30:01;;;;;;;31.02;15.57;;;;;;;7.91;90.21;100321.88;10157320;29;20063;-79
2023/02/19 03:35:11;;;;;;;31.38;16.70;;;;;;;8.15;88.67;100323.78;10156204;29;20070;-81
2023/02/19 03:40:15;;;;;;;33.38;17.15;;;;;;;7.94;89.60;100331.50;10167259;29;20040;-81
2023/02/19 03:45:35;;;;;;;34.00;16.15;;;;;;;8.04;89.14;100331.72;10176241;29;20048;-78
2023/02/19 03:50:47;;;;;;;36.60;17.25;;;;;;;8.01;88.78;100335.47;10164400;29;20048;-80
2023/02/19 03:55:57;;;;;;;29.40;15.13;;;;;;;8.31;86.75;100324.38;10161939;29;20124;-79
2023/02/19 04:01:07;;;;;;;28.95;14.52;;;;;;;8.06;87.71;100340.47;10161734;29;20499;-80
2023/02/19 04:06:15;;;;;;;32.85;14.30;;;;;;;7.80;88.27;100343.16;10185900;29;20057;-79
2023/02/19 04:11:21;;;;;;;31.70;18.17;;;;;;;7.58;91.09;100353.66;10181506;29;20071;-79
2023/02/19 04:16:29;;;;;;;31.75;15.20;;;;;;;7.86;90.76;100363.28;10186926;29;20060;-81
2023/02/19 04:21:35;;;;;;;30.75;17.08;;;;;;;7.74;91.32;100367.66;10159674;29;20040;-80
2023/02/19 04:26:38;;;;;;;30.92;15.27;;;;;;;7.80;90.41;100369.06;10167165;29;20052;-81
2023/02/19 04:31:41;;;;;;;26.25;14.30;;;;;;;7.78;88.90;100379.84;10170190;29;20076;-81
2023/02/19 04:36:46;;;;;;;25.85;15.00;;;;;;;7.92;88.70;100379.72;10165870;29;20514;-79
2023/02/19 04:41:48;;;;;;;27.42;14.27;;;;;;;7.67;89.00;100380.59;10155809;29;20171;-80
2023/02/19 04:46:51;;;;;;;24.85;12.52;;;;;;;7.25;90.18;100379.03;10177238;29;20051;-80
2023/02/19 04:51:55;;;;;;;22.77;11.43;;;;;;;7.37;90.76;100409.41;10165656;29;20052;-81
2023/02/19 04:56:58;;;;;;;21.48;12.27;;;;;;;7.49;90.14;100421.97;10168085;29;20060;-80
2023/02/19 05:02:01;;;;;;;23.52;11.77;;;;;;;7.95;86.52;100432.16;10163386;29;20087;-80
2023/02/19 05:07:05;;;;;;;23.05;10.23;;;;;;;7.67;86.19;100418.03;10167376;29;20060;-80
2023/02/19 05:12:08;;;;;;;16.35;9.77;;;;;;;7.76;85.82;100429.91;10161446;29;20548;-81
2023/02/19 05:17:11;;;;;;;16.25;9.18;;;;;;;7.45;85.54;100425.78;10160058;29;20044;-80
2023/02/19 05:22:15;;;;;;;14.07;7.82;;;;;;;7.70;84.40;100441.88;10160817;29;20047;-80
2023/02/19 05:27:18;;;;;;;17.25;7.28;;;;;;;7.46;85.00;100436.41;10171530;29;20040;-80
2023/02/19 05:32:21;;;;;;;9.45;7.53;;;;;;;7.44;85.39;100454.34;10182199;29;20057;-79
2023/02/19 05:37:25;;;;;;;12.82;7.20;;;;;;;7.66;84.71;100466.28;10165207;29;20421;-80
2023/02/19 05:42:28;;;;;;;9.90;6.43;;;;;;;7.78;84.11;100462.75;10161812;29;20099;-79
2023/02/19 05:47:31;;;;;;;13.40;7.25;;;;;;;7.15;85.64;100464.28;10160088;29;20104;-80
2023/02/19 05:52:35;;;;;;;18.42;8.30;;;;;;;7.54;85.22;100481.28;10187518;29;20040;-79
2023/02/19 05:57:40;;;;;;;15.93;8.55;;;;;;;7.63;85.83;100482.53;10157416;29;20044;-79
2023/02/19 06:02:45;;;;;;;12.50;7.03;;;;;;;7.68;85.74;100507.13;10174827;29;20471;-79
2023/02/19 06:07:50;;;;;;;4.82;3.47;;;;;;;7.97;82.22;100533.72;10180333;29;20116;-80
2023/02/19 06:12:53;;;;;;;4.45;3.03;;;;;;;7.65;82.97;100561.69;10163361;29;20049;-81
2023/02/19 06:17:56;;;;;;;4.85;3.65;;;;;;;7.35;83.56;100577.00;10161012;29;20041;-80
2023/02/19 06:23:00;;;;;;;5.07;3.47;;;;;;;6.97;83.88;100593.69;10161035;29;20044;-83
2023/02/19 06:28:03;;;;;;;3.33;2.30;;;;;;;6.73;84.31;100612.91;10172285;29;20037;-81
2023/02/19 06:33:06;;;;;;;4.20;2.92;;;;;;;6.51;84.76;100612.50;10181242;29;20048;-83
2023/02/19 06:38:11;;;;;;;3.35;2.70;;;;;;;6.43;85.30;100626.31;10176508;29;20045;-82
2023/02/19 06:43:13;;;;;;;3.88;3.10;;;;;;;6.39;85.63;100638.97;10183365;29;20048;-83
2023/02/19 06:48:16;;;;;;;4.47;3.17;;;;;;;6.31;85.94;100649.25;10175174;29;20040;-82
2023/02/19 06:53:21;;;;;;;5.10;3.17;;;;;;;6.20;86.16;100666.81;10189353;29;20068;-82
2023/02/19 06:58:24;;;;;;;6.50;3.95;;;;;;;6.09;86.33;100689.66;10178138;29;20492;-83
2023/02/19 07:03:27;;;;;;;8.77;4.93;;;;;;;6.11;86.52;100697.53;10174455;29;20043;-82
2023/02/19 07:08:31;;;;;;;7.32;4.45;;;;;;;6.09;86.83;100712.81;10179912;29;20055;-80
2023/02/19 07:13:34;;;;;;;7.68;3.35;;;;;;;5.95;86.86;100732.22;10185148;29;20048;-82
2023/02/19 07:18:38;;;;;;;5.25;3.05;;;;;;;5.87;86.68;100737.13;10183470;29;20096;-82
2023/02/19 07:23:43;;;;;;;3.03;2.10;;;;;;;5.82;86.91;100761.41;10173966;29;20496;-83
2023/02/19 07:28:47;;;;;;;2.78;1.88;;;;;;;5.85;86.90;100776.38;10181459;29;20091;-82
2023/02/19 07:33:50;;;;;;;2.25;2.03;;;;;;;5.86;87.01;100786.94;10204573;28;20051;-82
2023/02/19 07:38:59;;;;;;;1.92;1.73;;;;;;;5.75;87.12;100791.13;10145289;29;20053;-83
2023/02/19 07:44:02;;;;;;;2.00;1.80;;;;;;;5.69;87.25;100803.84;10192381;29;20056;-83
2023/02/19 07:49:06;;;;;;;2.63;2.00;;;;;;;5.81;87.59;100826.31;10170537;29;20096;-82
2023/02/19 07:54:10;;;;;;;2.63;2.28;;;;;;;5.86;87.67;100836.72;10166337;29;20051;-81
2023/02/19 07:59:14;;;;;;;4.50;2.83;;;;;;;6.01;87.71;100843.06;10181910;29;20104;-81
2023/02/19 08:04:17;;;;;;;3.35;1.98;;;;;;;6.10;86.82;100843.41;10177577;29;20052;-81
2023/02/19 08:09:21;;;;;;;3.15;1.80;;;;;;;6.05;86.99;100842.78;10179404;29;20101;-82
2023/02/19 08:14:25;;;;;;;1.30;1.15;;;;;;;6.07;86.57;100859.56;10163166;29;20044;-81
2023/02/19 08:19:28;;;;;;;1.25;1.10;;;;;;;6.21;86.87;100865.97;10176549;29;20448;-81
2023/02/19 08:24:33;;;;;;;1.50;1.40;;;;;;;6.39;87.07;100865.81;10166727;29;20480;-81
2023/02/19 08:29:35;;;;;;;2.50;2.05;;;;;;;6.39;86.94;100865.81;10181713;29;20046;-80
2023/02/19 08:34:38;;;;;;;2.53;2.25;;;;;;;6.58;87.33;100886.97;10186728;29;20123;-81
2023/02/19 08:39:42;;;;;;;3.25;2.50;;;;;;;6.44;86.29;100902.88;10172267;29;20063;-81
2023/02/19 08:44:45;;;;;;;5.32;3.10;;;;;;;6.14;85.30;100892.97;10174008;29;20056;-82
2023/02/19 08:49:48;;;;;;;4.82;3.17;;;;;;;6.04;86.11;100914.91;10179482;29;20048;-83
2023/02/19 08:54:52;;;;;;;5.85;3.30;;;;;;;6.12;85.55;100916.19;10159344;29;20076;-80
2023/02/19 08:59:56;;;;;;;4.65;3.10;;;;;;;6.16;85.66;100920.41;10125813;29;20523;-81
2023/02/19 09:04:59;;;;;;;3.65;2.88;;;;;;;6.44;85.70;100926.91;10103000;29;20064;-81
2023/02/19 09:10:03;;;;;;;4.28;2.15;;;;;;;6.36;83.79;100940.69;10122567;29;20815;-81
2023/02/19 09:15:07;;;;;;;5.32;2.80;;;;;;;6.36;84.11;100947.81;10129954;29;20577;-83
2023/02/19 09:20:11;;;;;;;5.38;2.60;;;;;;;6.49;83.93;100946.19;10116205;29;20390;-84
2023/02/19 09:25:15;;;;;;;2.85;2.53;;;;;;;6.58;82.89;100976.84;10152213;29;20047;-81
2023/02/19 09:30:19;;;;;;;3.17;2.35;;;;;;;6.69;82.21;100984.28;10149268;29;20128;-80
2023/02/19 09:35:22;;;;;;;3.53;2.47;;;;;;;6.39;81.22;100991.22;10138276;29;20075;-79
2023/02/19 09:40:26;;;;;;;4.53;2.58;;;;;;;6.54;83.04;100994.00;10149919;29;20072;-80
2023/02/19 09:45:29;;;;;;;3.03;2.10;;;;;;;6.98;82.58;101009.41;10137702;29;20048;-79
2023/02/19 09:50:37;;;;;;;2.40;1.92;;;;;;;7.06;81.37;101016.03;10128207;29;20080;-79
2023/02/19 09:55:44;;;;;;;2.50;2.13;;;;;;;7.11;79.96;101039.84;10143985;29;20048;-78
2023/02/19 10:00:49;;;;;;;3.40;2.17;;;;;;;7.47;81.14;101046.72;10141009;29;20127;-78
2023/02/19 10:05:55;;;;;;;2.47;1.88;;;;;;;7.91;80.44;101049.44;10153363;29;20083;-79
2023/02/19 10:11:00;;;;;;;4.50;1.90;;;;;;;8.32;78.21;101064.84;10156961;29;20079;-79
2023/02/19 10:16:08;;;;;;;3.00;2.70;;;;;;;8.23;77.38;101077.91;10141653;29;20056;-78
2023/02/19 10:21:18;;;;;;;2.30;1.83;;;;;;;8.73;76.79;101088.25;10138367;29;20072;-79
2023/02/19 10:26:23;;;;;;;2.58;1.88;;;;;;;8.47;74.50;101091.66;10125400;29;20048;-78
2023/02/19 10:31:26;;;;;;;2.10;1.90;;;;;;;8.19;76.07;101093.28;10144827;29;20052;-78
2023/02/19 10:36:33;;;;;;;2.65;2.28;;;;;;;8.55;77.73;101106.28;10141215;29;20052;-79
2023/02/19 10:41:41;;;;;;;4.53;2.97;;;;;;;8.66;76.33;101121.72;10135285;29;20055;-78
2023/02/19 10:46:49;;;;;;;3.33;2.67;;;;;;;8.58;76.02;101124.00;10145548;29;20103;-79
2023/02/19 10:51:54;;;;;;;2.45;1.95;;;;;;;8.92;73.65;101104.03;10140213;29;20085;-79
2023/02/19 10:57:24;;;;;;;2.75;2.03;;;;;;;9.23;73.12;101107.44;10114461;29;20068;-79
2023/02/19 11:02:28;;;;;;;3.53;2.22;;;;;;;9.58;71.83;101117.72;10115074;29;20063;-80
2023/02/19 11:07:31;;;;;;;2.83;2.40;;;;;;;10.46;66.11;101128.88;10137027;29;20116;-79
2023/02/19 11:12:35;;;;;;;2.10;1.88;;;;;;;11.11;69.43;101136.81;10139530;29;20177;-78
2023/02/19 11:17:38;;;;;;;2.03;1.70;;;;;;;11.43;71.61;101142.56;10137750;29;20062;-78
2023/02/19 11:22:45;;;;;;;2.45;2.25;;;;;;;10.71;64.92;101139.63;10138829;29;20088;-79
2023/02/19 11:27:58;;;;;;;3.03;1.92;;;;;;;9.67;62.34;101135.88;10150156;29;20063;-79
2023/02/19 11:33:20;;;;;;;2.58;2.38;;;;;;;8.89;70.13;101140.88;10140524;29;20048;-79
2023/02/19 11:38:23;;;;;;;2.75;1.58;;;;;;;10.53;67.75;101147.16;10140101;29;20432;-79
2023/02/19 11:43:50;;;;;;;2.40;1.20;;;;;;;13.80;60.50;101133.22;10187334;29;20080;-79
2023/02/19 11:49:01;;;;;;;1.20;1.10;;;;;;;15.45;62.07;101138.91;10175844;29;20067;-78
2023/02/19 11:54:15;;;;;;;2.70;1.20;;;;;;;14.03;55.06;101141.25;10144761;29;20060;-79
2023/02/19 11:59:25;;;;;;;1.70;1.60;;;;;;;11.51;65.16;101131.25;10163640;29;20740;-79
2023/02/19 12:05:06;;;;;;;2.75;2.10;;;;;;;11.26;70.34;101129.50;10138983;29;20068;-77
2023/02/19 12:10:17;;;;;;;2.40;1.80;;;;;;;14.69;64.83;101122.16;10143430;29;20052;-80
2023/02/19 12:15:30;;;;;;;2.65;2.28;;;;;;;15.03;60.32;101104.69;10148440;29;20108;-76
2023/02/19 12:20:38;;;;;;;5.28;2.28;;;;;;;12.47;60.80;101125.84;10155858;29;20108;-77
2023/02/19 12:25:52;;;;;;;3.38;2.30;;;;;;;10.62;63.21;101129.53;10150965;29;21273;-77
2023/02/19 12:31:23;;;;;;;5.70;2.20;;;;;;;9.82;68.17;101132.22;10146162;29;20048;-78
2023/02/19 12:36:37;;;;;;;2.45;2.03;;;;;;;13.04;73.38;101130.34;10137679;29;21224;-77
2023/02/19 12:41:46;;;;;;;2.17;2.08;;;;;;;14.08;59.34;101141.72;10120170;29;20055;-77
2023/02/19 12:46:54;;;;;;;2.13;2.00;;;;;;;12.94;64.44;101161.72;10126044;29;20075;-77
2023/02/19 12:52:01;;;;;;;3.65;2.03;;;;;;;11.56;66.84;101168.59;10134940;29;20086;-77
2023/02/19 12:57:10;;;;;;;1.40;1.30;;;;;;;10.50;61.88;101176.88;10107476;29;20194;-78
2023/02/19 13:02:19;;;;;;;4.25;2.88;;;;;;;9.96;63.65;101190.38;10117261;29;20051;-77
2023/02/19 13:07:26;;;;;;;1.30;1.20;;;;;;;10.13;70.89;101182.06;10127580;29;20436;-78
2023/02/19 13:12:34;;;;;;;1.80;1.70;;;;;;;12.24;59.74;101183.31;10125521;29;20727;-77
2023/02/19 13:24:43;;;;;;;2.67;1.60;;;;;;;14.21;63.80;101177.53;10160944;29;20077;-78
2023/02/19 13:30:09;;;;;;;2.03;0.80;;;;;;;15.29;60.47;101163.75;10169316;29;20040;-76
2023/02/19 13:35:26;;;;;;;2.05;0.90;;;;;;;13.46;58.48;101173.78;10163460;29;20048;-77
2023/02/19 13:40:34;;;;;;;1.65;0.90;;;;;;;11.60;63.99;101195.19;10171272;29;20044;-77
2023/02/19 13:45:40;;;;;;;3.15;0.90;;;;;;;10.09;55.89;101188.59;10166436;29;20173;-77
2023/02/19 13:50:42;;;;;;;1.95;1.00;;;;;;;9.66;64.61;101183.31;10164544;29;20104;-76
2023/02/19 13:55:50;;;;;;;;;;;;;;;9.88;67.61;101173.91;10163310;29;20050;-77
2023/02/19 14:00:53;;;;;;;2.38;1.92;;;;;;;9.36;66.66;101182.59;10155921;29;20397;-76
2023/02/19 14:05:59;;;;;;;2.25;1.20;;;;;;;10.23;66.40;101184.13;10170054;29;20110;-78
2023/02/19 14:11:04;;;;;;;1.15;1.10;;;;;;;10.27;66.36;101188.34;10165418;29;20047;-78
2023/02/19 14:16:47;;;;;;;1.20;1.10;;;;;;;10.43;66.36;101204.28;10163815;29;20114;-77
2023/02/19 14:21:50;;;;;;;3.42;1.23;;;;;;;10.01;63.92;101211.53;10153516;29;20099;-77
2023/02/19 14:26:57;;;;;;;2.22;1.38;;;;;;;8.76;58.37;101224.66;10153743;29;20044;-77
2023/02/19 14:32:04;;;;;;;3.15;1.67;;;;;;;9.43;67.60;101227.69;10184218;29;20044;-74
2023/02/19 14:37:17;;;;;;;1.75;1.48;;;;;;;9.68;71.06;101236.88;10181632;29;20078;-74
2023/02/19 14:42:25;;;;;;;2.00;1.30;;;;;;;8.96;62.88;101228.81;10183319;29;20102;-75
2023/02/19 14:47:33;;;;;;;3.83;2.42;;;;;;;8.98;69.09;101237.63;10183901;29;20134;-77
2023/02/19 14:52:42;;;;;;;3.28;1.50;;;;;;;9.09;68.60;101228.94;10195974;29;20047;-76
2023/02/19 14:57:50;;;;;;;1.67;1.58;;;;;;;9.21;71.18;101225.50;10150032;29;20053;-76
2023/02/19 15:02:55;;;;;;;1.83;1.50;;;;;;;9.47;69.38;101214.97;10132135;29;20072;-76
2023/02/19 15:08:00;;;;;;;2.13;1.90;;;;;;;9.43;67.33;101206.22;10149561;29;20408;-76
2023/02/19 15:13:10;;;;;;;2.00;1.70;;;;;;;9.13;71.62;101192.94;10161459;29;20044;-77
2023/02/19 15:18:19;;;;;;;2.92;2.10;;;;;;;8.32;62.43;101184.44;10189986;29;20096;-76
2023/02/19 15:23:24;;;;;;;3.33;2.38;;;;;;;9.06;66.60;101162.13;10193027;29;20522;-75
2023/02/19 15:28:33;;;;;;;3.60;2.50;;;;;;;9.01;66.85;101180.31;10193329;29;20075;-77
2023/02/19 15:33:35;;;;;;;3.33;2.35;;;;;;;8.95;70.92;101170.81;10187729;29;20135;-78
2023/02/19 15:38:38;;;;;;;3.45;2.30;;;;;;;8.52;68.90;101178.78;10197636;29;20048;-77
2023/02/19 15:43:50;;;;;;;4.22;3.35;;;;;;;8.33;72.35;101170.94;10199332;29;20064;-78
2023/02/19 15:48:59;;;;;;;3.25;2.90;;;;;;;8.19;74.48;101173.59;10195538;29;20083;-77
2023/02/19 15:54:10;;;;;;;4.85;3.28;;;;;;;8.05;72.97;101176.22;10203999;29;20145;-77
2023/02/19 15:59:22;;;;;;;4.18;3.30;;;;;;;8.06;73.84;101186.81;10198124;29;20079;-78
2023/02/19 16:04:25;;;;;;;4.85;3.60;;;;;;;8.02;74.17;101201.34;10174934;29;20044;-77
2023/02/19 16:09:30;;;;;;;6.80;3.42;;;;;;;7.93;74.24;101205.41;10179698;29;20056;-77
2023/02/19 16:14:35;;;;;;;5.80;4.10;;;;;;;7.89;76.02;101222.56;10171824;29;20073;-76
2023/02/19 16:19:45;;;;;;;5.93;3.95;;;;;;;7.78;75.79;101216.09;10153390;29;20052;-77
2023/02/19 16:24:51;;;;;;;6.55;5.47;;;;;;;7.66;71.94;101221.19;10157093;29;20078;-78
2023/02/19 16:29:56;;;;;;;9.05;5.30;;;;;;;7.65;74.25;101223.94;10168247;29;20148;-75
2023/02/19 16:34:59;;;;;;;6.50;4.80;;;;;;;7.60;74.05;101226.88;10156573;29;20099;-77
2023/02/19 16:41:04;;;;;;;7.47;5.43;;;;;;;7.53;73.75;101227.28;10153613;29;20064;-75
2023/02/19 16:46:11;;;;;;;38.88;18.92;;;;;;;7.54;74.53;101234.34;10148507;29;20041;-76
2023/02/19 16:51:21;;;;;;;23.67;14.18;;;;;;;7.51;74.91;101246.09;10174475;29;20142;-76
2023/02/19 16:56:24;;;;;;;10.73;6.90;;;;;;;7.50;74.00;101236.34;10189088;29;20051;-76
2023/02/19 17:01:29;;;;;;;11.25;6.20;;;;;;;7.44;70.32;101244.72;10190885;29;20044;-79
2023/02/19 17:06:36;;;;;;;8.13;5.70;;;;;;;7.45;73.58;101271.34;10193741;29;20489;-77
2023/02/19 17:11:39;;;;;;;8.13;5.10;;;;;;;7.37;71.47;101270.03;10206521;29;20063;-77
2023/02/19 17:16:43;;;;;;;6.75;4.90;;;;;;;7.30;74.03;101266.84;10199198;29;20051;-76
2023/02/19 17:21:46;;;;;;;10.07;5.55;;;;;;;7.31;73.52;101263.22;10196761;29;20452;-75
2023/02/19 17:26:50;;;;;;;6.90;5.15;;;;;;;7.26;71.30;101267.94;10201312;29;20384;-76
2023/02/19 17:31:54;;;;;;;10.70;6.13;;;;;;;7.21;68.97;101270.88;10189918;29;20035;-76
2023/02/19 17:36:58;;;;;;;8.82;5.75;;;;;;;7.33;73.56;101263.13;10180554;29;20100;-77
2023/02/19 17:42:01;;;;;;;11.20;5.78;;;;;;;7.39;73.16;101269.00;10171255;29;20051;-77
2023/02/19 17:47:08;;;;;;;8.30;5.35;;;;;;;7.25;71.48;101277.75;10174846;29;20044;-76
2023/02/19 17:52:15;;;;;;;9.65;6.13;;;;;;;7.22;69.53;101274.41;10180012;29;20048;-77
2023/02/19 17:57:21;;;;;;;10.30;5.97;;;;;;;7.05;68.15;101268.13;10179921;29;20048;-78
2023/02/19 18:02:26;;;;;;;13.98;8.00;;;;;;;7.12;71.33;101263.31;10179052;29;20035;-77
2023/02/19 18:07:29;;;;;;;11.70;7.28;;;;;;;7.12;69.39;101260.66;10157543;29;20075;-76
2023/02/19 18:12:32;;;;;;;7.97;5.88;;;;;;;7.02;68.19;101267.41;10172040;29;20130;-77
2023/02/19 18:17:37;;;;;;;8.13;5.47;;;;;;;6.95;67.92;101272.22;10175293;29;20080;-76
2023/02/19 18:22:43;;;;;;;8.88;5.30;;;;;;;6.91;68.74;101269.78;10172349;29;20051;-77
2023/02/19 18:27:46;;;;;;;7.85;4.90;;;;;;;6.72;67.46;101294.75;10158397;29;20041;-77
2023/02/19 18:32:52;;;;;;;8.23;4.93;;;;;;;6.40;68.78;101296.34;10177505;29;20044;-77
2023/02/19 18:37:57;;;;;;;8.95;5.32;;;;;;;6.41;70.46;101298.06;10155307;29;20501;-77
2023/02/19 18:43:00;;;;;;;8.15;4.32;;;;;;;6.42;70.38;101301.56;10162357;29;20045;-75
2023/02/19 18:48:05;;;;;;;5.57;4.25;;;;;;;6.17;71.16;101318.78;10174289;29;20071;-78
2023/02/19 18:53:10;;;;;;;7.97;4.82;;;;;;;6.44;71.22;101313.06;10158128;29;20069;-77
2023/02/19 18:58:14;;;;;;;6.07;4.65;;;;;;;6.47;71.01;101312.91;10153771;29;20060;-76
2023/02/19 19:03:18;;;;;;;8.73;5.45;;;;;;;6.08;72.36;101311.22;10164775;29;20052;-77
2023/02/19 19:08:23;;;;;;;9.20;5.55;;;;;;;6.46;71.88;101304.03;10174104;29;20123;-76
2023/02/19 19:13:26;;;;;;;7.75;4.78;;;;;;;6.36;72.63;101316.09;10155232;29;20083;-77
2023/02/19 19:18:31;;;;;;;9.02;5.53;;;;;;;6.21;72.38;101312.38;10182543;29;20040;-78
2023/02/19 19:23:34;;;;;;;13.65;5.43;;;;;;;6.27;73.12;101317.41;10194793;29;20415;-78
2023/02/19 19:28:38;;;;;;;11.77;5.22;;;;;;;5.86;74.57;101316.69;10192685;29;20084;-75
2023/02/19 19:33:45;;;;;;;9.82;5.28;;;;;;;6.32;73.67;101310.03;10160061;29;20100;-78
2023/02/19 19:38:48;;;;;;;8.75;5.97;;;;;;;6.16;74.00;101312.59;10161640;29;20080;-77
2023/02/19 19:43:51;;;;;;;9.50;5.90;;;;;;;6.05;74.58;101298.88;10178007;29;20076;-78
2023/02/19 19:48:55;;;;;;;8.93;5.85;;;;;;;6.34;73.69;101313.50;10200706;29;20071;-77
2023/02/19 19:53:58;;;;;;;10.45;6.40;;;;;;;6.13;74.29;101309.19;10162307;29;20044;-79
2023/02/19 19:59:01;;;;;;;10.88;6.45;;;;;;;5.87;76.00;101321.09;10172199;29;20048;-77
2023/02/19 20:04:05;;;;;;;15.00;6.95;;;;;;;6.14;75.76;101321.59;10191892;29;20053;-78
2023/02/19 20:09:08;;;;;;;10.43;6.40;;;;;;;6.31;74.83;101336.81;10195386;29;20055;-78
2023/02/19 20:14:11;;;;;;;12.27;7.25;;;;;;;6.22;74.79;101326.56;10202980;29;20067;-79
2023/02/19 20:19:16;;;;;;;12.60;7.15;;;;;;;5.95;75.83;101333.16;10195081;29;20055;-76
2023/02/19 20:24:22;;;;;;;10.18;5.88;;;;;;;5.93;75.90;101336.81;10194307;29;20044;-77
2023/02/19 20:29:26;;;;;;;19.38;7.63;;;;;;;6.08;75.90;101329.91;10195959;29;20126;-79
2023/02/19 20:34:31;;;;;;;10.80;7.03;;;;;;;6.00;75.28;101321.38;10200569;29;20123;-79
2023/02/19 20:39:36;;;;;;;15.82;7.43;;;;;;;6.07;75.27;101325.50;10201321;29;20074;-77
2023/02/19 20:44:39;;;;;;;14.75;6.88;;;;;;;5.90;75.58;101319.16;10205510;29;20095;-79
2023/02/19 20:49:45;;;;;;;13.85;7.45;;;;;;;6.15;75.11;101304.66;10206128;28;20033;-73
2023/02/19 20:54:48;;;;;;;12.73;7.63;;;;;;;5.97;75.75;101300.19;10214505;29;20055;-76
2023/02/19 20:59:51;;;;;;;14.75;8.02;;;;;;;6.05;75.42;101308.69;10179360;29;20105;-77
2023/02/19 21:04:56;;;;;;;12.35;7.75;;;;;;;6.01;75.99;101299.13;10157510;29;20068;-78
2023/02/19 21:09:59;;;;;;;12.55;7.57;;;;;;;5.72;76.96;101310.19;10169066;29;20460;-77
2023/02/19 21:15:03;;;;;;;16.27;7.55;;;;;;;5.75;77.09;101319.00;10157480;29;20054;-78
2023/02/19 21:20:08;;;;;;;10.95;7.10;;;;;;;5.54;79.05;101307.50;10183109;23;20048;-78
2023/02/19 21:25:12;;;;;;;13.48;7.68;;;;;;;5.57;78.47;101323.34;10160669;29;20104;-78
2023/02/19 21:30:14;;;;;;;11.05;7.15;;;;;;;5.39;79.40;101325.06;10160448;29;20044;-77
2023/02/19 21:35:19;;;;;;;13.00;7.10;;;;;;;5.69;78.17;101333.47;10185547;29;20067;-78
2023/02/19 21:40:22;;;;;;;9.55;6.30;;;;;;;5.54;78.12;101344.81;10189996;29;20453;-78
2023/02/19 21:45:25;;;;;;;10.70;7.43;;;;;;;6.01;77.07;101345.34;10189121;29;20514;-77
2023/02/19 21:50:29;;;;;;;12.77;5.70;;;;;;;5.69;76.71;101330.81;10187420;29;20409;-77
2023/02/19 21:55:32;;;;;;;8.18;5.90;;;;;;;5.50;77.54;101330.78;10188307;29;20118;-78
2023/02/19 22:00:35;;;;;;;10.27;6.18;;;;;;;5.72;75.98;101338.66;10189611;29;20527;-78
2023/02/19 22:05:39;;;;;;;9.02;5.60;;;;;;;5.82;75.83;101341.78;10185305;29;20095;-80
2023/02/19 22:10:42;;;;;;;6.78;4.90;;;;;;;5.41;76.49;101328.53;10192575;29;20047;-77
2023/02/19 22:15:44;;;;;;;6.55;4.75;;;;;;;5.80;74.82;101317.84;10183943;29;20135;-78
2023/02/19 22:20:50;;;;;;;7.13;3.75;;;;;;;5.58;74.93;101311.78;10185440;29;20055;-79
2023/02/19 22:25:52;;;;;;;7.47;4.32;;;;;;;5.39;75.20;101299.28;10190099;29;20059;-79
2023/02/19 22:30:55;;;;;;;8.02;4.25;;;;;;;5.59;74.38;101292.19;10191642;29;20126;-78
2023/02/19 22:35:59;;;;;;;5.18;3.80;;;;;;;5.88;73.59;101280.16;10194986;29;20096;-77
2023/02/19 22:41:02;;;;;;;7.70;4.22;;;;;;;5.67;74.30;101282.03;10177432;29;20099;-79
2023/02/19 22:46:10;;;;;;;6.32;4.03;;;;;;;5.41;75.48;101277.91;10162194;29;20124;-78
2023/02/19 22:56:45;;;;;;;6.97;4.72;;;;;;;5.30;77.00;101305.03;10358412;23;20094;-80
2023/02/19 23:01:48;;;;;;;11.35;6.45;;;;;;;5.55;77.36;101299.47;10155364;29;20044;-82
2023/02/19 23:06:52;;;;;;;10.27;6.47;;;;;;;5.25;78.43;101318.53;10169205;23;20390;-78
2023/02/19 23:12:03;;;;;;;10.57;6.68;;;;;;;5.10;79.49;101297.91;10169048;29;20043;-77
2023/02/19 23:17:06;;;;;;;9.52;7.07;;;;;;;5.05;78.66;101306.09;10162979;29;20091;-78
2023/02/19 23:22:08;;;;;;;9.63;6.90;;;;;;;5.06;78.76;101309.63;10170729;29;20052;-78
2023/02/19 23:27:13;;;;;;;9.85;6.63;;;;;;;5.12;77.65;101290.69;10158698;29;20435;-79
2023/02/19 23:32:19;;;;;;;9.52;6.28;;;;;;;4.96;78.15;101289.59;10164820;29;20048;-79
2023/02/19 23:37:22;;;;;;;10.75;7.57;;;;;;;5.17;78.39;101307.34;10169683;29;20496;-79
2023/02/19 23:42:26;;;;;;;10.05;7.32;;;;;;;5.36;77.47;101291.41;10167338;29;20472;-77
2023/02/19 23:47:29;;;;;;;4.57;3.60;;;;;;;4.87;77.37;101293.53;10175257;29;20040;-78
2023/02/19 23:52:32;;;;;;;8.07;6.25;;;;;;;5.37;76.16;101295.81;10178858;29;20068;-79
2023/02/19 23:57:36;;;;;;;8.63;7.13;;;;;;;5.11;77.28;101293.44;10169401;29;20048;-79
